createdAt,value
2023-08-11T00:01:26.358Z,3.13
2023-08-11T00:03:53.658Z,3.25
2023-08-11T00:06:20.825Z,2.83
2023-08-11T00:08:47.868Z,2.95
2023-08-11T00:11:14.883Z,3.35
2023-08-11T00:13:42.795Z,3.25
2023-08-11T00:16:11.594Z,3.20
2023-08-11T00:18:39.294Z,4.20
2023-08-11T00:21:07.072Z,4.28
2023-08-11T00:23:34.243Z,3.83
2023-08-11T00:26:01.518Z,3.65
2023-08-11T00:28:29.212Z,4.07
2023-08-11T00:30:56.684Z,3.85
2023-08-11T00:33:24.168Z,3.80
2023-08-11T00:35:51.479Z,3.72
2023-08-11T00:38:18.607Z,3.80
2023-08-11T00:40:45.805Z,4.00
2023-08-11T00:43:14.310Z,4.00
2023-08-11T00:45:48.888Z,3.65
2023-08-11T00:48:16.363Z,3.80
2023-08-11T00:50:44.790Z,4.35
2023-08-11T00:53:12.531Z,4.40
2023-08-11T00:55:40.501Z,3.95
2023-08-11T00:58:07.826Z,3.30
2023-08-11T01:00:37.596Z,3.83
2023-08-11T01:03:05.529Z,3.60
2023-08-11T01:05:40.393Z,3.72
2023-08-11T01:08:21.263Z,3.40
2023-08-11T01:11:03.309Z,3.58
2023-08-11T01:13:35.600Z,3.60
2023-08-11T01:16:05.812Z,3.95
2023-08-11T01:18:34.788Z,3.38
2023-08-11T01:21:07.321Z,3.75
2023-08-11T01:23:35.628Z,3.95
2023-08-11T01:26:03.759Z,3.75
2023-08-11T01:28:31.180Z,3.80
2023-08-11T01:30:58.315Z,3.55
2023-08-11T01:33:25.436Z,3.85
2023-08-11T01:35:52.828Z,3.63
2023-08-11T01:38:19.969Z,3.97
2023-08-11T01:40:47.089Z,3.60
2023-08-11T01:43:16.085Z,4.15
2023-08-11T01:45:44.677Z,3.67
2023-08-11T01:48:12.940Z,3.53
2023-08-11T01:50:40.270Z,3.70
2023-08-11T01:53:10.118Z,4.18
2023-08-11T01:55:37.530Z,3.90
2023-08-11T01:58:05.152Z,4.00
2023-08-11T02:00:32.469Z,3.47
2023-08-11T02:03:00.005Z,3.75
2023-08-11T02:05:28.162Z,3.38
2023-08-11T02:07:57.095Z,3.35
2023-08-11T02:10:24.772Z,3.03
2023-08-11T02:12:52.260Z,3.60
2023-08-11T02:15:20.252Z,3.50
2023-08-11T02:17:48.853Z,3.33
2023-08-11T02:20:24.125Z,3.58
2023-08-11T02:22:53.167Z,3.55
2023-08-11T02:25:20.854Z,3.70
2023-08-11T02:27:48.556Z,3.58
2023-08-11T02:30:16.344Z,3.70
2023-08-11T02:32:47.112Z,3.60
2023-08-11T02:35:18.788Z,4.03
2023-08-11T02:37:46.641Z,3.78
2023-08-11T02:40:14.061Z,3.75
2023-08-11T02:43:03.508Z,4.28
2023-08-11T02:45:31.822Z,4.07
2023-08-11T02:47:59.012Z,4.13
2023-08-11T02:50:28.831Z,3.95
2023-08-11T02:52:56.118Z,4.05
2023-08-11T02:55:23.502Z,4.38
2023-08-11T02:57:50.706Z,4.70
2023-08-11T03:00:19.182Z,4.88
2023-08-11T03:02:49.702Z,4.38
2023-08-11T03:05:18.728Z,4.35
2023-08-11T03:07:50.206Z,4.03
2023-08-11T03:10:17.792Z,4.45
2023-08-11T03:12:45.376Z,4.13
2023-08-11T03:15:13.040Z,4.20
2023-08-11T03:17:40.280Z,3.80
2023-08-11T03:20:14.314Z,4.50
2023-08-11T03:22:46.125Z,4.07
2023-08-11T03:25:16.746Z,3.85
2023-08-11T03:27:44.824Z,4.10
2023-08-11T03:30:19.948Z,3.53
2023-08-11T03:32:51.118Z,4.25
2023-08-11T03:35:20.246Z,3.85
2023-08-11T03:37:50.118Z,4.13
2023-08-11T03:40:18.405Z,3.67
2023-08-11T03:42:55.671Z,3.75
2023-08-11T03:45:23.333Z,3.75
2023-08-11T03:47:50.608Z,3.92
2023-08-11T03:50:22.253Z,3.72
2023-08-11T03:52:49.883Z,3.97
2023-08-11T03:55:17.176Z,4.45
2023-08-11T03:57:47.117Z,3.47
2023-08-11T04:00:17.953Z,3.83
2023-08-11T04:02:51.742Z,3.70
2023-08-11T04:05:19.903Z,4.05
2023-08-11T04:07:47.032Z,3.75
2023-08-11T04:10:16.571Z,3.80
2023-08-11T04:12:44.218Z,3.72
2023-08-11T04:15:11.588Z,4.00
2023-08-11T04:17:38.653Z,3.83
2023-08-11T04:20:14.378Z,3.90
2023-08-11T04:22:42.267Z,3.20
2023-08-11T04:25:12.055Z,3.80
2023-08-11T04:27:45.288Z,3.10
2023-08-11T04:30:13.811Z,3.13
2023-08-11T04:32:44.858Z,3.72
2023-08-11T04:35:12.641Z,3.25
2023-08-11T04:37:43.163Z,3.42
2023-08-11T04:40:15.271Z,3.40
2023-08-11T04:42:44.948Z,3.20
2023-08-11T04:45:17.579Z,3.38
2023-08-11T04:47:46.440Z,3.00
2023-08-11T04:50:17.826Z,3.83
2023-08-11T04:52:47.231Z,4.00
2023-08-11T04:55:14.698Z,3.60
2023-08-11T04:57:41.801Z,4.10
2023-08-11T05:00:16.076Z,3.92
2023-08-11T05:02:43.488Z,4.05
2023-08-11T05:05:11.414Z,4.18
2023-08-11T05:07:39.108Z,4.13
2023-08-11T05:10:06.867Z,4.47
2023-08-11T05:12:34.943Z,3.75
2023-08-11T05:15:02.295Z,4.03
2023-08-11T05:17:30.154Z,4.00
2023-08-11T05:19:57.906Z,3.47
2023-08-11T05:22:25.471Z,3.67
2023-08-11T05:24:52.487Z,4.00
2023-08-11T05:27:19.550Z,3.53
2023-08-11T05:29:48.723Z,3.50
2023-08-11T05:32:16.089Z,3.40
2023-08-11T05:34:43.692Z,3.83
2023-08-11T05:37:13.923Z,3.65
2023-08-11T05:39:41.095Z,3.90
2023-08-11T05:42:09.256Z,3.78
2023-08-11T05:44:37.849Z,3.40
2023-08-11T05:47:07.534Z,3.35
2023-08-11T05:52:02.057Z,3.28
2023-08-11T05:54:29.037Z,2.70
2023-08-11T05:56:56.135Z,3.28
2023-08-11T05:59:23.512Z,3.00
2023-08-11T06:01:51.342Z,3.30
2023-08-11T06:04:18.633Z,2.83
2023-08-11T06:06:45.855Z,3.25
2023-08-11T06:09:13.002Z,3.30
2023-08-11T06:11:40.538Z,3.33
2023-08-11T06:14:07.900Z,3.38
2023-08-11T06:16:35.152Z,3.78
2023-08-11T06:19:02.296Z,3.70
2023-08-11T06:21:29.335Z,3.22
2023-08-11T06:23:56.373Z,3.90
2023-08-11T06:26:23.859Z,3.33
2023-08-11T06:29:11.298Z,3.08
2023-08-11T06:31:38.458Z,3.20
2023-08-11T06:34:05.489Z,3.25
2023-08-11T06:36:32.545Z,3.13
2023-08-11T06:38:59.608Z,4.07
2023-08-11T06:41:26.700Z,3.78
2023-08-11T06:43:55.275Z,3.70
2023-08-11T06:46:22.516Z,3.60
2023-08-11T06:48:49.679Z,4.38
2023-08-11T06:51:16.815Z,3.65
2023-08-11T06:53:44.021Z,3.70
2023-08-11T06:56:11.730Z,3.45
2023-08-11T06:58:39.010Z,3.28
2023-08-11T07:01:06.121Z,3.15
2023-08-11T07:03:34.822Z,3.30
2023-08-11T07:06:04.637Z,2.83
2023-08-11T07:08:31.997Z,3.15
2023-08-11T07:10:59.076Z,3.50
2023-08-11T07:13:26.205Z,3.13
2023-08-11T07:15:56.498Z,3.00
2023-08-11T07:18:24.330Z,2.88
2023-08-11T07:20:51.418Z,3.38
2023-08-11T07:23:18.719Z,3.15
2023-08-11T07:25:48.783Z,2.90
2023-08-11T07:28:15.857Z,3.22
2023-08-11T07:30:43.099Z,3.08
2023-08-11T07:33:10.269Z,3.10
2023-08-11T07:35:37.317Z,3.25
2023-08-11T07:38:14.951Z,3.13
2023-08-11T07:40:42.141Z,3.00
2023-08-11T07:43:09.444Z,3.10
2023-08-11T07:45:36.538Z,3.05
2023-08-11T07:48:03.785Z,3.17
2023-08-11T07:50:31.596Z,3.03
2023-08-11T07:52:59.935Z,3.15
2023-08-11T07:55:27.181Z,3.17
2023-08-11T07:57:54.587Z,3.00
2023-08-11T08:00:26.324Z,3.00
2023-08-11T08:02:57.172Z,3.10
2023-08-11T08:05:24.486Z,3.25
2023-08-11T08:10:21.635Z,3.10
2023-08-11T08:12:48.782Z,3.10
2023-08-11T08:15:18.467Z,2.80
2023-08-11T08:17:46.044Z,2.95
2023-08-11T08:20:14.980Z,2.58
2023-08-11T08:22:42.750Z,2.47
2023-08-11T08:25:10.468Z,3.15
2023-08-11T08:27:40.212Z,2.65
2023-08-11T08:30:11.768Z,2.67
2023-08-11T08:32:40.386Z,3.10
2023-08-11T08:35:08.757Z,2.88
2023-08-11T08:37:36.105Z,3.10
2023-08-11T08:40:04.386Z,2.65
2023-08-11T08:42:32.416Z,2.63
2023-08-11T08:45:00.174Z,2.72
2023-08-11T08:47:28.056Z,2.80
2023-08-11T08:49:57.364Z,2.85
2023-08-11T08:52:24.906Z,3.05
2023-08-11T08:54:52.623Z,2.70
2023-08-11T08:57:21.947Z,2.95
2023-08-11T08:59:49.315Z,3.22
2023-08-11T09:02:17.600Z,2.90
2023-08-11T09:04:46.810Z,3.17
2023-08-11T09:07:16.003Z,3.17
2023-08-11T09:09:44.065Z,3.15
2023-08-11T09:12:11.585Z,3.00
2023-08-11T09:14:42.169Z,2.90
2023-08-11T09:17:09.818Z,2.90
2023-08-11T09:19:38.294Z,3.05
2023-08-11T09:22:14.467Z,3.00
2023-08-11T09:24:42.187Z,3.15
2023-08-11T09:27:09.205Z,2.75
2023-08-11T09:29:37.542Z,2.60
2023-08-11T09:32:05.838Z,2.85
2023-08-11T09:34:35.991Z,2.50
2023-08-11T09:37:03.097Z,2.83
2023-08-11T09:39:30.754Z,2.70
2023-08-11T09:41:58.022Z,2.25
2023-08-11T09:44:25.190Z,2.50
2023-08-11T09:46:53.153Z,2.70
2023-08-11T09:49:20.427Z,2.58
2023-08-11T09:51:49.939Z,2.80
2023-08-11T09:54:18.263Z,2.75
2023-08-11T09:56:45.548Z,3.03
2023-08-11T09:59:22.075Z,3.30
2023-08-11T10:01:55.325Z,3.00
2023-08-11T10:04:34.593Z,2.65
2023-08-11T10:07:04.888Z,2.90
2023-08-11T10:09:34.872Z,2.80
2023-08-11T10:12:03.044Z,2.80
2023-08-11T10:14:30.874Z,2.40
2023-08-11T10:17:00.274Z,2.72
2023-08-11T10:19:28.156Z,2.65
2023-08-11T10:21:56.623Z,2.60
2023-08-11T10:24:25.826Z,2.15
2023-08-11T10:26:53.299Z,3.20
2023-08-11T10:29:22.381Z,2.40
2023-08-11T10:31:58.527Z,2.65
2023-08-11T10:34:26.789Z,2.50
2023-08-11T10:36:58.625Z,2.40
2023-08-11T10:39:28.384Z,2.38
2023-08-11T10:41:58.749Z,2.72
2023-08-11T10:44:30.539Z,2.65
2023-08-11T10:47:04.418Z,2.20
2023-08-11T10:49:36.110Z,2.30
2023-08-11T10:52:04.925Z,2.65
2023-08-11T10:54:36.202Z,2.55
2023-08-11T10:57:04.687Z,2.58
2023-08-11T10:59:34.067Z,2.90
2023-08-11T11:02:01.361Z,2.88
2023-08-11T11:04:31.116Z,2.90
2023-08-11T11:07:00.053Z,2.50
2023-08-11T11:09:31.447Z,2.63
2023-08-11T11:11:58.952Z,2.53
2023-08-11T11:14:28.502Z,1.98
2023-08-11T11:17:00.662Z,2.13
2023-08-11T11:19:28.806Z,2.00
2023-08-11T11:21:56.289Z,2.17
2023-08-11T11:24:23.628Z,2.10
2023-08-11T11:26:51.125Z,2.17
2023-08-11T11:29:25.083Z,2.28
2023-08-11T11:31:52.853Z,2.50
2023-08-11T11:34:20.774Z,2.35
2023-08-11T11:36:48.611Z,2.10
2023-08-11T11:39:16.248Z,2.20
2023-08-11T11:41:43.352Z,2.78
2023-08-11T11:44:10.469Z,2.40
2023-08-11T11:46:37.587Z,2.45
2023-08-11T11:49:15.820Z,2.13
2023-08-11T11:51:47.799Z,2.00
2023-08-11T11:54:14.878Z,2.10
2023-08-11T11:56:54.152Z,2.30
2023-08-11T11:59:30.170Z,2.40
2023-08-11T12:02:05.304Z,2.30
2023-08-11T12:04:33.363Z,2.42
2023-08-11T12:07:01.203Z,2.08
2023-08-11T12:09:30.114Z,2.17
2023-08-11T12:11:57.839Z,2.20
2023-08-11T12:14:28.687Z,2.10
2023-08-11T12:16:58.464Z,1.67
2023-08-11T12:21:52.821Z,1.90
2023-08-11T12:24:20.640Z,2.20
2023-08-11T12:26:47.761Z,2.10
2023-08-11T12:29:14.972Z,1.98
2023-08-11T12:31:42.106Z,1.90
2023-08-11T12:34:09.221Z,2.17
2023-08-11T12:36:36.500Z,2.10
2023-08-11T12:39:04.664Z,1.98
2023-08-11T12:41:31.764Z,2.05
2023-08-11T12:43:58.905Z,1.92
2023-08-11T12:46:26.493Z,1.95
2023-08-11T12:48:53.666Z,1.90
2023-08-11T12:51:20.973Z,1.90
2023-08-11T12:53:48.064Z,2.25
2023-08-11T12:56:15.379Z,2.10
2023-08-11T12:58:44.121Z,1.42
2023-08-11T13:01:11.412Z,2.15
2023-08-11T13:03:38.613Z,1.73
2023-08-11T13:06:06.340Z,1.85
2023-08-11T13:08:33.597Z,1.60
2023-08-11T13:11:00.840Z,1.60
2023-08-11T13:13:27.865Z,1.70
2023-08-11T13:15:54.916Z,1.60
2023-08-11T13:19:14.605Z,1.65
2023-08-11T13:22:30.883Z,1.83
2023-08-11T13:24:57.992Z,1.77
2023-08-11T13:27:25.022Z,1.67
2023-08-11T13:29:52.155Z,2.25
2023-08-11T13:32:19.188Z,1.83
2023-08-11T13:34:46.361Z,1.98
2023-08-11T13:37:16.518Z,1.70
2023-08-11T13:39:44.970Z,1.65
2023-08-11T13:42:14.549Z,1.52
2023-08-11T13:44:44.881Z,1.70
2023-08-11T13:47:14.243Z,1.70
2023-08-11T13:49:41.293Z,1.60
2023-08-11T13:52:08.789Z,1.80
2023-08-11T13:54:36.174Z,1.70
2023-08-11T13:57:03.856Z,1.58
2023-08-11T13:59:31.230Z,1.60
2023-08-11T14:01:58.438Z,1.77
2023-08-11T14:04:25.844Z,1.80
2023-08-11T14:06:59.113Z,1.73
2023-08-11T14:09:30.481Z,1.63
2023-08-11T14:11:57.478Z,1.70
2023-08-11T14:14:24.839Z,1.50
2023-08-11T14:16:51.947Z,1.70
2023-08-11T14:19:19.006Z,1.52
2023-08-11T14:21:46.290Z,1.52
2023-08-11T14:24:13.333Z,1.83
2023-08-11T14:26:40.799Z,1.65
2023-08-11T14:29:08.087Z,1.50
2023-08-11T14:31:35.542Z,1.45
2023-08-11T14:34:04.669Z,1.52
2023-08-11T14:36:31.919Z,1.70
2023-08-11T14:39:00.636Z,1.58
2023-08-11T14:41:28.190Z,1.52
2023-08-11T14:43:55.244Z,1.50
2023-08-11T14:46:22.530Z,1.42
2023-08-11T14:48:50.056Z,1.63
2023-08-11T14:51:17.529Z,1.63
2023-08-11T14:53:44.587Z,1.80
2023-08-11T14:56:12.651Z,1.65
2023-08-11T14:58:39.707Z,1.90
2023-08-11T15:01:07.652Z,1.98
2023-08-11T15:03:34.847Z,1.30
2023-08-11T15:06:06.283Z,1.58
2023-08-11T15:08:34.766Z,1.60
2023-08-11T15:11:01.847Z,1.67
2023-08-11T15:13:29.548Z,1.60
2023-08-11T15:15:57.135Z,1.75
2023-08-11T15:18:25.564Z,1.75
2023-08-11T15:20:52.728Z,1.60
2023-08-11T15:23:20.035Z,1.50
2023-08-11T15:25:47.322Z,1.52
2023-08-11T15:28:14.353Z,1.73
2023-08-11T15:30:41.451Z,1.33
2023-08-11T15:33:18.101Z,1.63
2023-08-11T15:35:45.497Z,1.40
2023-08-11T15:38:13.183Z,1.90
2023-08-11T15:40:40.288Z,1.80
2023-08-11T15:43:07.339Z,1.65
2023-08-11T15:45:34.380Z,1.83
2023-08-11T15:48:01.514Z,1.40
2023-08-11T15:50:28.978Z,1.60
2023-08-11T15:52:56.182Z,1.63
2023-08-11T15:55:35.821Z,1.52
2023-08-11T15:58:04.560Z,1.83
2023-08-11T16:00:33.361Z,1.50
2023-08-11T16:03:03.740Z,1.73
2023-08-11T16:05:31.211Z,1.40
2023-08-11T16:07:58.381Z,1.80
2023-08-11T16:10:27.804Z,1.40
2023-08-11T16:12:54.950Z,2.13
2023-08-11T16:15:22.326Z,1.75
2023-08-11T16:17:50.834Z,1.33
2023-08-11T16:20:18.700Z,2.03
2023-08-11T16:22:45.697Z,1.58
2023-08-11T16:25:12.975Z,1.50
2023-08-11T16:27:41.245Z,1.70
2023-08-11T16:30:11.426Z,1.70
2023-08-11T16:32:38.841Z,1.70
2023-08-11T16:35:06.325Z,1.83
2023-08-11T16:37:33.551Z,1.60
2023-08-11T16:40:00.865Z,1.60
2023-08-11T16:42:28.896Z,1.55
2023-08-11T16:44:56.194Z,1.60
2023-08-11T16:47:23.270Z,1.70
2023-08-11T16:49:51.704Z,1.80
2023-08-11T16:52:19.053Z,1.65
2023-08-11T16:54:46.428Z,1.67
2023-08-11T16:57:14.622Z,1.60
2023-08-11T16:59:41.670Z,1.80
2023-08-11T17:02:09.005Z,1.70
2023-08-11T17:04:36.389Z,1.80
2023-08-11T17:07:04.279Z,1.45
2023-08-11T17:09:31.402Z,2.00
2023-08-11T17:11:58.736Z,1.73
2023-08-11T17:14:25.803Z,1.80
2023-08-11T17:16:52.920Z,1.60
2023-08-11T17:19:23.836Z,1.88
2023-08-11T17:21:51.094Z,1.95
2023-08-11T17:24:18.202Z,1.65
2023-08-11T17:26:45.337Z,1.42
2023-08-11T17:29:12.397Z,1.67
2023-08-11T17:31:39.515Z,1.83
2023-08-11T17:34:06.722Z,1.70
2023-08-11T17:36:33.841Z,1.50
2023-08-11T17:39:00.899Z,1.60
2023-08-11T17:41:28.139Z,1.58
2023-08-11T17:43:55.986Z,2.00
2023-08-11T17:46:23.273Z,1.40
2023-08-11T17:48:53.827Z,2.28
2023-08-11T17:51:22.547Z,1.75
2023-08-11T17:54:03.599Z,1.83
2023-08-11T17:56:37.090Z,1.85
2023-08-11T17:59:04.524Z,2.03
2023-08-11T18:01:32.208Z,2.47
2023-08-11T18:04:06.271Z,2.25
2023-08-11T18:06:36.151Z,1.65
2023-08-11T18:09:04.980Z,1.58
2023-08-11T18:11:33.628Z,2.00
2023-08-11T18:14:01.221Z,2.03
2023-08-11T18:16:29.044Z,2.00
2023-08-11T18:18:56.234Z,2.20
2023-08-11T18:21:25.850Z,2.30
2023-08-11T18:23:57.172Z,2.28
2023-08-11T18:26:24.438Z,2.33
2023-08-11T18:28:51.533Z,2.47
2023-08-11T18:31:18.639Z,2.10
2023-08-11T18:33:46.126Z,2.47
2023-08-11T18:36:13.234Z,2.10
2023-08-11T18:38:40.564Z,2.55
2023-08-11T18:41:07.577Z,2.50
2023-08-11T18:43:34.679Z,3.17
2023-08-11T18:46:05.054Z,3.15
2023-08-11T18:48:32.972Z,2.35
2023-08-11T18:51:00.275Z,2.50
2023-08-11T18:53:28.685Z,2.25
2023-08-11T18:55:55.854Z,2.22
2023-08-11T18:58:26.541Z,2.80
2023-08-11T19:00:53.682Z,2.00
2023-08-11T19:03:21.092Z,2.40
2023-08-11T19:05:48.239Z,2.22
2023-08-11T19:08:15.416Z,2.00
2023-08-11T19:10:42.629Z,2.40
2023-08-11T19:13:09.651Z,2.25
2023-08-11T19:15:36.813Z,2.10
2023-08-11T19:18:05.892Z,2.22
2023-08-11T19:20:33.141Z,2.35
2023-08-11T19:23:00.329Z,2.42
2023-08-11T19:25:27.672Z,2.30
2023-08-11T19:27:54.789Z,2.50
2023-08-11T19:30:22.362Z,2.00
2023-08-11T19:32:50.836Z,2.20
2023-08-11T19:35:18.127Z,2.10
2023-08-11T19:37:45.424Z,2.20
2023-08-11T19:40:12.978Z,2.60
2023-08-11T19:42:40.043Z,2.40
2023-08-11T19:45:07.751Z,2.33
2023-08-11T19:47:34.822Z,2.20
2023-08-11T19:50:01.979Z,2.22
2023-08-11T19:52:29.567Z,2.42
2023-08-11T19:54:56.593Z,2.42
2023-08-11T19:57:23.666Z,2.60
2023-08-11T19:59:50.945Z,2.42
2023-08-11T20:02:18.103Z,2.55
2023-08-11T20:04:45.266Z,2.40
2023-08-11T20:07:12.622Z,2.70
2023-08-11T20:09:39.943Z,2.40
2023-08-11T20:12:10.222Z,2.35
2023-08-11T20:17:04.760Z,2.60
2023-08-11T20:19:31.864Z,2.65
2023-08-11T20:22:00.305Z,2.50
2023-08-11T20:24:27.392Z,2.75
2023-08-11T20:26:57.670Z,2.58
2023-08-11T20:31:56.157Z,2.45
2023-08-11T20:34:24.472Z,2.53
2023-08-11T20:36:52.572Z,2.88
2023-08-11T20:39:23.136Z,3.08
2023-08-11T20:41:51.276Z,2.58
2023-08-11T20:44:18.515Z,2.83
2023-08-11T20:46:45.833Z,2.80
2023-08-11T20:49:12.915Z,3.03
2023-08-11T20:51:53.580Z,3.10
2023-08-11T20:54:20.739Z,3.03
2023-08-11T20:56:47.841Z,2.83
2023-08-11T20:59:14.945Z,2.85
2023-08-11T21:01:42.091Z,3.17
2023-08-11T21:04:12.212Z,3.08
2023-08-11T21:06:39.605Z,2.58
2023-08-11T21:09:06.667Z,2.60
2023-08-11T21:11:34.040Z,3.15
2023-08-11T21:14:08.092Z,2.80
2023-08-11T21:16:35.250Z,3.45
2023-08-11T21:19:02.550Z,3.10
2023-08-11T21:21:29.862Z,2.92
2023-08-11T21:23:57.040Z,3.10
2023-08-11T21:26:24.175Z,3.00
2023-08-11T21:28:51.774Z,2.97
2023-08-11T21:31:19.156Z,3.35
2023-08-11T21:33:59.018Z,3.35
2023-08-11T21:36:28.586Z,2.75
2023-08-11T21:38:57.493Z,3.38
2023-08-11T21:41:27.202Z,3.53
2023-08-11T21:43:54.618Z,3.10
2023-08-11T21:46:21.801Z,3.13
2023-08-11T21:49:10.466Z,3.03
2023-08-11T21:51:47.084Z,3.05
2023-08-11T21:54:14.476Z,2.90
2023-08-11T21:56:41.663Z,3.10
2023-08-11T21:59:08.923Z,3.05
2023-08-11T22:01:35.927Z,3.17
2023-08-11T22:04:03.073Z,2.95
2023-08-11T22:06:30.199Z,3.58
2023-08-11T22:08:57.264Z,3.65
2023-08-11T22:11:36.042Z,3.13
2023-08-11T22:14:05.382Z,3.38
2023-08-11T22:16:33.646Z,3.25
2023-08-11T22:19:01.757Z,2.80
2023-08-11T22:21:29.112Z,3.17
2023-08-11T22:23:59.287Z,3.22
2023-08-11T22:26:26.372Z,3.58
2023-08-11T22:28:53.774Z,3.72
2023-08-11T22:33:48.110Z,4.32
2023-08-11T22:36:15.318Z,3.70
2023-08-11T22:38:42.718Z,3.83
2023-08-11T22:41:09.794Z,3.83
2023-08-11T22:43:36.941Z,3.55
2023-08-11T22:46:04.196Z,3.50
2023-08-11T22:48:31.453Z,3.42
2023-08-11T22:50:58.538Z,3.40
2023-08-11T22:53:25.596Z,3.97
2023-08-11T22:55:53.094Z,5.05
2023-08-11T22:58:20.181Z,3.83
2023-08-11T23:00:47.328Z,3.92
2023-08-11T23:03:14.494Z,4.10
2023-08-11T23:05:41.748Z,3.95
2023-08-11T23:08:08.903Z,4.07
2023-08-11T23:10:36.073Z,3.40
2023-08-11T23:13:03.201Z,3.60
2023-08-11T23:15:30.369Z,3.90
2023-08-11T23:17:57.501Z,3.35
2023-08-11T23:20:24.637Z,3.65
2023-08-11T23:22:51.814Z,3.83
2023-08-11T23:25:19.000Z,4.53
2023-08-11T23:27:46.101Z,4.30
2023-08-11T23:30:13.510Z,4.40
2023-08-11T23:32:40.664Z,4.50
2023-08-11T23:35:08.139Z,4.75
2023-08-11T23:37:35.427Z,4.70
2023-08-11T23:40:02.569Z,4.95
2023-08-11T23:42:31.512Z,4.63
2023-08-11T23:44:58.606Z,4.22
2023-08-11T23:47:26.167Z,4.88
2023-08-11T23:49:53.502Z,4.20
2023-08-11T23:52:20.867Z,4.50
2023-08-11T23:54:53.155Z,4.35
2023-08-11T23:57:22.403Z,4.25
2023-08-11T23:59:49.619Z,5.00
